sensor_id;sensor_type;location;lat;lon;timestamp;pressure;altitude;pressure_sealevel;temperature;humidity
65329;BME280;51941;52.210;5.158;2023-02-26T00:00:59;101883.19;;;3.34;67.74
65329;BME280;51941;52.210;5.158;2023-02-26T00:03:26;101874.69;;;3.40;67.59
65329;BME280;51941;52.210;5.158;2023-02-26T00:05:52;101887.44;;;3.35;66.85
65329;BME280;51941;52.210;5.158;2023-02-26T00:08:19;101892.88;;;3.42;66.55
65329;BME280;51941;52.210;5.158;2023-02-26T00:10:46;101889.59;;;3.40;65.41
65329;BME280;51941;52.210;5.158;2023-02-26T00:13:13;101891.91;;;3.43;64.82
65329;BME280;51941;52.210;5.158;2023-02-26T00:15:40;101804.63;;;2.76;63.97
65329;BME280;51941;52.210;5.158;2023-02-26T00:18:12;101884.09;;;3.17;63.96
65329;BME280;51941;52.210;5.158;2023-02-26T00:20:42;101792.91;;;2.54;63.70
65329;BME280;51941;52.210;5.158;2023-02-26T00:23:11;101923.06;;;3.28;63.59
65329;BME280;51941;52.210;5.158;2023-02-26T00:25:39;101926.81;;;3.26;63.40
65329;BME280;51941;52.210;5.158;2023-02-26T00:28:06;101922.88;;;3.22;62.74
65329;BME280;51941;52.210;5.158;2023-02-26T00:30:34;101817.00;;;2.40;62.40
65329;BME280;51941;52.210;5.158;2023-02-26T00:33:01;101945.88;;;3.10;62.15
65329;BME280;51941;52.210;5.158;2023-02-26T00:35:32;101942.97;;;3.13;61.96
65329;BME280;51941;52.210;5.158;2023-02-26T00:38:01;101949.41;;;3.01;61.92
65329;BME280;51941;52.210;5.158;2023-02-26T00:40:35;101951.88;;;3.02;62.23
65329;BME280;51941;52.210;5.158;2023-02-26T00:43:04;101962.94;;;2.96;62.29
65329;BME280;51941;52.210;5.158;2023-02-26T00:45:32;101947.94;;;2.81;62.72
65329;BME280;51941;52.210;5.158;2023-02-26T00:48:28;101965.91;;;2.75;62.06
65329;BME280;51941;52.210;5.158;2023-02-26T00:51:11;101940.91;;;2.55;61.45
65329;BME280;51941;52.210;5.158;2023-02-26T00:53:43;101964.03;;;2.68;61.33
65329;BME280;51941;52.210;5.158;2023-02-26T00:56:13;101979.50;;;2.61;61.44
65329;BME280;51941;52.210;5.158;2023-02-26T00:58:40;101988.34;;;2.60;61.23
65329;BME280;51941;52.210;5.158;2023-02-26T01:01:07;101837.31;;;1.57;61.18
65329;BME280;51941;52.210;5.158;2023-02-26T01:03:34;101978.09;;;2.49;61.17
65329;BME280;51941;52.210;5.158;2023-02-26T01:06:03;101972.72;;;2.51;61.18
65329;BME280;51941;52.210;5.158;2023-02-26T01:08:33;101867.31;;;1.71;61.30
65329;BME280;51941;52.210;5.158;2023-02-26T01:11:05;101949.41;;;2.22;61.35
65329;BME280;51941;52.210;5.158;2023-02-26T01:13:32;101939.56;;;2.16;61.65
65329;BME280;51941;52.210;5.158;2023-02-26T01:16:04;101988.81;;;2.28;61.42
65329;BME280;51941;52.210;5.158;2023-02-26T01:18:37;101987.03;;;2.29;61.45
65329;BME280;51941;52.210;5.158;2023-02-26T01:21:11;101995.84;;;2.28;61.62
65329;BME280;51941;52.210;5.158;2023-02-26T01:23:43;101991.50;;;2.19;60.98
65329;BME280;51941;52.210;5.158;2023-02-26T01:26:15;101988.00;;;2.28;60.95
65329;BME280;51941;52.210;5.158;2023-02-26T01:28:45;101981.13;;;2.27;60.98
65329;BME280;51941;52.210;5.158;2023-02-26T01:31:21;101880.56;;;1.60;60.74
65329;BME280;51941;52.210;5.158;2023-02-26T01:33:55;101996.44;;;2.22;60.67
65329;BME280;51941;52.210;5.158;2023-02-26T01:36:30;101895.06;;;1.45;60.41
65329;BME280;51941;52.210;5.158;2023-02-26T01:39:02;101884.13;;;1.32;60.52
65329;BME280;51941;52.210;5.158;2023-02-26T01:41:33;101835.16;;;0.98;60.68
65329;BME280;51941;52.210;5.158;2023-02-26T01:44:12;102000.59;;;1.97;60.65
65329;BME280;51941;52.210;5.158;2023-02-26T01:47:01;102008.31;;;1.89;61.01
65329;BME280;51941;52.210;5.158;2023-02-26T01:49:30;102011.91;;;1.88;61.02
65329;BME280;51941;52.210;5.158;2023-02-26T01:52:00;102015.88;;;1.82;60.50
65329;BME280;51941;52.210;5.158;2023-02-26T01:54:29;102013.28;;;1.82;60.14
65329;BME280;51941;52.210;5.158;2023-02-26T01:56:59;102003.41;;;1.76;60.27
65329;BME280;51941;52.210;5.158;2023-02-26T01:59:29;101810.06;;;0.50;59.77
65329;BME280;51941;52.210;5.158;2023-02-26T02:01:58;102014.81;;;1.75;59.79
65329;BME280;51941;52.210;5.158;2023-02-26T02:04:25;102022.13;;;1.72;59.62
65329;BME280;51941;52.210;5.158;2023-02-26T02:06:53;101998.72;;;1.52;59.62
65329;BME280;51941;52.210;5.158;2023-02-26T02:09:21;102014.44;;;1.70;59.99
65329;BME280;51941;52.210;5.158;2023-02-26T02:12:18;102027.09;;;1.65;59.62
65329;BME280;51941;52.210;5.158;2023-02-26T02:14:55;102031.78;;;1.61;59.61
65329;BME280;51941;52.210;5.158;2023-02-26T02:17:35;102044.59;;;1.55;59.68
65329;BME280;51941;52.210;5.158;2023-02-26T02:20:26;102037.97;;;1.60;59.20
65329;BME280;51941;52.210;5.158;2023-02-26T02:23:05;102033.84;;;1.58;59.42
65329;BME280;51941;52.210;5.158;2023-02-26T02:28:39;102039.22;;;1.47;59.10
65329;BME280;51941;52.210;5.158;2023-02-26T02:31:15;102035.97;;;1.45;59.44
65329;BME280;51941;52.210;5.158;2023-02-26T02:33:49;102037.06;;;1.42;59.03
65329;BME280;51941;52.210;5.158;2023-02-26T02:36:20;101913.72;;;0.66;58.68
65329;BME280;51941;52.210;5.158;2023-02-26T02:38:52;101925.63;;;0.69;58.57
65329;BME280;51941;52.210;5.158;2023-02-26T02:41:24;102056.16;;;1.43;58.58
65329;BME280;51941;52.210;5.158;2023-02-26T02:43:52;102051.88;;;1.42;58.55
65329;BME280;51941;52.210;5.158;2023-02-26T02:46:24;102054.25;;;1.35;58.89
65329;BME280;51941;52.210;5.158;2023-02-26T02:48:57;102047.25;;;1.36;58.66
65329;BME280;51941;52.210;5.158;2023-02-26T02:51:28;102058.50;;;1.36;58.72
65329;BME280;51941;52.210;5.158;2023-02-26T02:54:00;102058.63;;;1.35;58.76
65329;BME280;51941;52.210;5.158;2023-02-26T02:56:32;102063.84;;;1.35;58.60
65329;BME280;51941;52.210;5.158;2023-02-26T02:59:09;101947.03;;;0.53;58.33
65329;BME280;51941;52.210;5.158;2023-02-26T03:01:41;102074.69;;;1.30;58.34
65329;BME280;51941;52.210;5.158;2023-02-26T03:04:11;102092.00;;;1.31;58.39
65329;BME280;51941;52.210;5.158;2023-02-26T03:06:39;102083.09;;;1.24;58.27
65329;BME280;51941;52.210;5.158;2023-02-26T03:09:08;102078.25;;;1.29;58.08
65329;BME280;51941;52.210;5.158;2023-02-26T03:11:39;102071.56;;;1.26;57.97
65329;BME280;51941;52.210;5.158;2023-02-26T03:14:07;102075.13;;;1.25;58.14
65329;BME280;51941;52.210;5.158;2023-02-26T03:16:48;102078.97;;;1.21;58.03
65329;BME280;51941;52.210;5.158;2023-02-26T03:19:22;102078.00;;;1.22;58.20
65329;BME280;51941;52.210;5.158;2023-02-26T03:21:56;102087.22;;;1.17;58.16
65329;BME280;51941;52.210;5.158;2023-02-26T03:25:07;102079.25;;;1.18;58.24
65329;BME280;51941;52.210;5.158;2023-02-26T03:27:40;102078.81;;;1.13;58.14
65329;BME280;51941;52.210;5.158;2023-02-26T03:30:15;102083.09;;;1.14;58.54
65329;BME280;51941;52.210;5.158;2023-02-26T03:32:52;102097.78;;;1.15;58.50
65329;BME280;51941;52.210;5.158;2023-02-26T03:35:28;102094.91;;;1.09;58.74
65329;BME280;51941;52.210;5.158;2023-02-26T03:38:02;101991.44;;;0.32;58.96
65329;BME280;51941;52.210;5.158;2023-02-26T03:40:34;102104.63;;;1.07;58.98
65329;BME280;51941;52.210;5.158;2023-02-26T03:43:05;102084.59;;;0.88;58.95
65329;BME280;51941;52.210;5.158;2023-02-26T03:45:37;102086.13;;;0.91;59.23
65329;BME280;51941;52.210;5.158;2023-02-26T03:48:08;102109.59;;;1.00;59.15
65329;BME280;51941;52.210;5.158;2023-02-26T03:50:39;102110.28;;;1.02;59.27
65329;BME280;51941;52.210;5.158;2023-02-26T03:53:30;102116.72;;;0.98;59.51
65329;BME280;51941;52.210;5.158;2023-02-26T03:56:11;102111.50;;;0.98;59.41
65329;BME280;51941;52.210;5.158;2023-02-26T03:58:45;102119.72;;;0.94;59.39
65329;BME280;51941;52.210;5.158;2023-02-26T04:01:29;102126.19;;;0.89;59.74
65329;BME280;51941;52.210;5.158;2023-02-26T04:04:02;102133.16;;;0.89;59.68
65329;BME280;51941;52.210;5.158;2023-02-26T04:06:31;102132.19;;;0.80;59.73
65329;BME280;51941;52.210;5.158;2023-02-26T04:09:01;102134.38;;;0.85;59.98
65329;BME280;51941;52.210;5.158;2023-02-26T04:11:30;102133.16;;;0.79;59.87
65329;BME280;51941;52.210;5.158;2023-02-26T04:13:58;102144.00;;;0.75;60.06
65329;BME280;51941;52.210;5.158;2023-02-26T04:16:25;102157.81;;;0.66;60.27
65329;BME280;51941;52.210;5.158;2023-02-26T04:18:52;102150.41;;;0.71;60.08
65329;BME280;51941;52.210;5.158;2023-02-26T04:21:21;102158.09;;;0.63;60.23
65329;BME280;51941;52.210;5.158;2023-02-26T04:23:49;102157.13;;;0.64;60.38
65329;BME280;51941;52.210;5.158;2023-02-26T04:26:16;102023.44;;;-0.36;60.15
65329;BME280;51941;52.210;5.158;2023-02-26T04:28:44;102153.81;;;0.62;60.18
65329;BME280;51941;52.210;5.158;2023-02-26T04:31:11;102161.78;;;0.60;60.24
65329;BME280;51941;52.210;5.158;2023-02-26T04:33:39;102156.41;;;0.52;60.41
65329;BME280;51941;52.210;5.158;2023-02-26T04:36:07;102170.81;;;0.56;60.26
65329;BME280;51941;52.210;5.158;2023-02-26T04:38:36;102168.47;;;0.53;60.56
65329;BME280;51941;52.210;5.158;2023-02-26T04:41:04;102179.03;;;0.51;60.62
65329;BME280;51941;52.210;5.158;2023-02-26T04:43:31;102178.19;;;0.51;60.36
65329;BME280;51941;52.210;5.158;2023-02-26T04:46:12;102177.66;;;0.47;60.54
65329;BME280;51941;52.210;5.158;2023-02-26T04:48:39;102171.88;;;0.44;60.74
65329;BME280;51941;52.210;5.158;2023-02-26T04:51:06;102176.25;;;0.43;60.58
65329;BME280;51941;52.210;5.158;2023-02-26T04:53:33;102178.00;;;0.33;60.80
65329;BME280;51941;52.210;5.158;2023-02-26T04:56:01;102172.78;;;0.33;60.96
65329;BME280;51941;52.210;5.158;2023-02-26T04:58:28;102185.13;;;0.31;61.10
65329;BME280;51941;52.210;5.158;2023-02-26T05:00:58;102153.66;;;0.13;61.21
65329;BME280;51941;52.210;5.158;2023-02-26T05:03:25;102193.91;;;0.30;61.35
65329;BME280;51941;52.210;5.158;2023-02-26T05:05:52;102184.81;;;0.25;61.30
65329;BME280;51941;52.210;5.158;2023-02-26T05:08:19;102087.75;;;-0.48;61.35
65329;BME280;51941;52.210;5.158;2023-02-26T05:10:46;102201.84;;;0.29;61.42
65329;BME280;51941;52.210;5.158;2023-02-26T05:13:15;102213.31;;;0.26;61.37
65329;BME280;51941;52.210;5.158;2023-02-26T05:15:41;102102.19;;;-0.55;61.41
65329;BME280;51941;52.210;5.158;2023-02-26T05:18:11;102217.28;;;0.21;61.55
65329;BME280;51941;52.210;5.158;2023-02-26T05:20:38;102212.16;;;0.09;61.67
65329;BME280;51941;52.210;5.158;2023-02-26T05:23:05;102112.28;;;-0.62;61.58
65329;BME280;51941;52.210;5.158;2023-02-26T05:25:32;102115.94;;;-0.64;61.95
65329;BME280;51941;52.210;5.158;2023-02-26T05:28:00;102220.34;;;0.05;61.68
65329;BME280;51941;52.210;5.158;2023-02-26T05:30:29;102212.13;;;-0.11;62.35
65329;BME280;51941;52.210;5.158;2023-02-26T05:32:56;102208.72;;;-0.12;62.21
65329;BME280;51941;52.210;5.158;2023-02-26T05:35:23;102220.41;;;-0.06;62.43
65329;BME280;51941;52.210;5.158;2023-02-26T05:37:49;102244.72;;;0.04;62.51
65329;BME280;51941;52.210;5.158;2023-02-26T05:40:16;102236.22;;;0.02;62.61
65329;BME280;51941;52.210;5.158;2023-02-26T05:42:43;102147.03;;;-0.63;62.77
65329;BME280;51941;52.210;5.158;2023-02-26T05:45:10;102252.53;;;0.04;63.04
65329;BME280;51941;52.210;5.158;2023-02-26T05:47:38;102247.00;;;-0.03;62.77
65329;BME280;51941;52.210;5.158;2023-02-26T05:50:06;102247.69;;;-0.01;63.02
65329;BME280;51941;52.210;5.158;2023-02-26T05:52:33;102253.31;;;-0.05;63.00
65329;BME280;51941;52.210;5.158;2023-02-26T05:54:59;102034.13;;;-1.54;63.05
65329;BME280;51941;52.210;5.158;2023-02-26T05:57:26;102263.53;;;-0.13;63.35
65329;BME280;51941;52.210;5.158;2023-02-26T05:59:53;102273.34;;;-0.17;63.30
65329;BME280;51941;52.210;5.158;2023-02-26T06:02:20;102265.78;;;-0.20;63.63
65329;BME280;51941;52.210;5.158;2023-02-26T06:04:49;102269.47;;;-0.22;63.75
65329;BME280;51941;52.210;5.158;2023-02-26T06:07:15;102273.13;;;-0.25;63.78
65329;BME280;51941;52.210;5.158;2023-02-26T06:09:42;102286.38;;;-0.28;64.05
65329;BME280;51941;52.210;5.158;2023-02-26T06:12:09;102290.44;;;-0.35;64.61
65329;BME280;51941;52.210;5.158;2023-02-26T06:14:36;102291.66;;;-0.39;64.40
65329;BME280;51941;52.210;5.158;2023-02-26T06:17:03;102270.06;;;-0.62;64.59
65329;BME280;51941;52.210;5.158;2023-02-26T06:19:31;102296.50;;;-0.46;64.48
65329;BME280;51941;52.210;5.158;2023-02-26T06:21:59;102308.56;;;-0.45;64.34
65329;BME280;51941;52.210;5.158;2023-02-26T06:24:26;102310.94;;;-0.42;65.08
65329;BME280;51941;52.210;5.158;2023-02-26T06:26:53;102275.53;;;-0.65;65.27
65329;BME280;51941;52.210;5.158;2023-02-26T06:29:20;102300.53;;;-0.53;65.60
65329;BME280;51941;52.210;5.158;2023-02-26T06:31:48;102317.78;;;-0.41;65.69
65329;BME280;51941;52.210;5.158;2023-02-26T06:34:15;102290.16;;;-0.64;65.79
65329;BME280;51941;52.210;5.158;2023-02-26T06:36:42;102334.91;;;-0.38;66.52
65329;BME280;51941;52.210;5.158;2023-02-26T06:39:10;102338.09;;;-0.35;66.29
65329;BME280;51941;52.210;5.158;2023-02-26T06:41:38;102341.41;;;-0.33;66.12
65329;BME280;51941;52.210;5.158;2023-02-26T06:44:05;102218.06;;;-1.05;66.50
65329;BME280;51941;52.210;5.158;2023-02-26T06:46:32;102342.56;;;-0.26;66.83
65329;BME280;51941;52.210;5.158;2023-02-26T06:48:59;102339.63;;;-0.21;66.68
65329;BME280;51941;52.210;5.158;2023-02-26T06:51:26;102347.28;;;-0.19;66.61
65329;BME280;51941;52.210;5.158;2023-02-26T06:53:52;102351.41;;;-0.17;66.76
65329;BME280;51941;52.210;5.158;2023-02-26T06:56:21;102351.41;;;-0.17;67.37
65329;BME280;51941;52.210;5.158;2023-02-26T06:58:48;102347.47;;;-0.11;67.20
65329;BME280;51941;52.210;5.158;2023-02-26T07:01:15;102359.38;;;0.02;67.04
65329;BME280;51941;52.210;5.158;2023-02-26T07:03:42;102263.69;;;-0.58;67.08
65329;BME280;51941;52.210;5.158;2023-02-26T07:06:10;102240.59;;;-0.51;66.56
65329;BME280;51941;52.210;5.158;2023-02-26T07:08:38;102371.50;;;0.45;66.40
65329;BME280;51941;52.210;5.158;2023-02-26T07:11:05;102260.38;;;-0.28;65.96
65329;BME280;51941;52.210;5.158;2023-02-26T07:13:34;102380.97;;;0.46;66.06
65329;BME280;51941;52.210;5.158;2023-02-26T07:16:01;102349.13;;;0.42;66.08
65329;BME280;51941;52.210;5.158;2023-02-26T07:18:28;102355.16;;;0.94;65.47
65329;BME280;51941;52.210;5.158;2023-02-26T07:20:55;102255.13;;;0.85;64.69
65329;BME280;51941;52.210;5.158;2023-02-26T07:23:22;102282.88;;;1.46;62.30
65329;BME280;51941;52.210;5.158;2023-02-26T07:25:49;102357.22;;;2.28;61.29
65329;BME280;51941;52.210;5.158;2023-02-26T07:28:15;102285.03;;;2.08;60.11
65329;BME280;51941;52.210;5.158;2023-02-26T07:30:44;102386.31;;;3.09;59.86
65329;BME280;51941;52.210;5.158;2023-02-26T07:33:11;102406.19;;;3.39;57.98
65329;BME280;51941;52.210;5.158;2023-02-26T07:35:38;102404.28;;;3.59;57.16
65329;BME280;51941;52.210;5.158;2023-02-26T07:38:04;102416.06;;;3.72;56.50
65329;BME280;51941;52.210;5.158;2023-02-26T07:40:32;102379.25;;;3.74;56.29
65329;BME280;51941;52.210;5.158;2023-02-26T07:42:59;102420.59;;;3.98;55.04
65329;BME280;51941;52.210;5.158;2023-02-26T07:45:25;102415.06;;;4.01;54.55
65329;BME280;51941;52.210;5.158;2023-02-26T07:47:54;102418.25;;;4.12;54.12
65329;BME280;51941;52.210;5.158;2023-02-26T07:50:21;102422.09;;;4.18;53.70
65329;BME280;51941;52.210;5.158;2023-02-26T07:52:50;102422.25;;;4.16;52.66
65329;BME280;51941;52.210;5.158;2023-02-26T07:55:17;102312.94;;;3.38;52.30
65329;BME280;51941;52.210;5.158;2023-02-26T07:57:44;102428.16;;;4.18;51.99
65329;BME280;51941;52.210;5.158;2023-02-26T08:00:13;102426.88;;;4.22;51.20
65329;BME280;51941;52.210;5.158;2023-02-26T08:02:40;102430.31;;;4.23;51.44
65329;BME280;51941;52.210;5.158;2023-02-26T08:05:09;102431.50;;;4.28;51.41
65329;BME280;51941;52.210;5.158;2023-02-26T08:07:36;102440.66;;;4.24;51.46
65329;BME280;51941;52.210;5.158;2023-02-26T08:10:04;102432.19;;;4.30;51.13
65329;BME280;51941;52.210;5.158;2023-02-26T08:12:31;102348.53;;;3.66;51.07
65329;BME280;51941;52.210;5.158;2023-02-26T08:14:58;102439.00;;;4.41;51.19
65329;BME280;51941;52.210;5.158;2023-02-26T08:17:25;102449.56;;;4.32;50.40
65329;BME280;51941;52.210;5.158;2023-02-26T08:19:52;102443.75;;;3.75;50.34
65329;BME280;51941;52.210;5.158;2023-02-26T08:22:20;102279.81;;;2.08;51.16
65329;BME280;51941;52.210;5.158;2023-02-26T08:24:48;102464.56;;;3.02;52.64
65329;BME280;51941;52.210;5.158;2023-02-26T08:27:15;102476.72;;;2.84;52.95
65329;BME280;51941;52.210;5.158;2023-02-26T08:29:42;102472.19;;;2.67;53.42
65329;BME280;51941;52.210;5.158;2023-02-26T08:32:10;102474.22;;;2.54;53.69
65329;BME280;51941;52.210;5.158;2023-02-26T08:34:37;102444.81;;;2.23;54.08
65329;BME280;51941;52.210;5.158;2023-02-26T08:37:04;102485.66;;;2.43;53.99
65329;BME280;51941;52.210;5.158;2023-02-26T08:39:35;102480.97;;;2.27;54.06
65329;BME280;51941;52.210;5.158;2023-02-26T08:42:03;102357.41;;;1.48;54.16
65329;BME280;51941;52.210;5.158;2023-02-26T08:44:30;102493.63;;;2.32;54.27
65329;BME280;51941;52.210;5.158;2023-02-26T08:46:57;102510.53;;;2.28;53.97
65329;BME280;51941;52.210;5.158;2023-02-26T08:49:24;102496.50;;;2.29;53.87
65329;BME280;51941;52.210;5.158;2023-02-26T08:51:51;102276.75;;;0.76;54.12
65329;BME280;51941;52.210;5.158;2023-02-26T08:54:18;102512.88;;;2.31;54.17
65329;BME280;51941;52.210;5.158;2023-02-26T08:56:47;102519.06;;;2.30;54.24
65329;BME280;51941;52.210;5.158;2023-02-26T08:59:13;102511.38;;;2.38;54.35
65329;BME280;51941;52.210;5.158;2023-02-26T09:01:40;102523.63;;;2.47;54.18
65329;BME280;51941;52.210;5.158;2023-02-26T09:04:07;102502.31;;;2.42;54.49
65329;BME280;51941;52.210;5.158;2023-02-26T09:06:34;102527.63;;;2.51;53.88
65329;BME280;51941;52.210;5.158;2023-02-26T09:09:01;102524.19;;;2.51;53.62
65329;BME280;51941;52.210;5.158;2023-02-26T09:11:28;102532.44;;;2.56;53.89
65329;BME280;51941;52.210;5.158;2023-02-26T09:13:58;102513.72;;;2.31;53.26
65329;BME280;51941;52.210;5.158;2023-02-26T09:16:26;102406.78;;;1.61;53.29
65329;BME280;51941;52.210;5.158;2023-02-26T09:18:54;102538.50;;;2.66;53.17
65329;BME280;51941;52.210;5.158;2023-02-26T09:21:22;102550.31;;;2.70;53.14
65329;BME280;51941;52.210;5.158;2023-02-26T09:23:49;102541.13;;;2.75;52.90
65329;BME280;51941;52.210;5.158;2023-02-26T09:26:15;102545.78;;;2.82;52.92
65329;BME280;51941;52.210;5.158;2023-02-26T09:28:42;102407.81;;;1.98;53.00
65329;BME280;51941;52.210;5.158;2023-02-26T09:31:10;102546.88;;;2.89;52.65
65329;BME280;51941;52.210;5.158;2023-02-26T09:33:37;102541.53;;;2.90;52.58
65329;BME280;51941;52.210;5.158;2023-02-26T09:36:05;102560.78;;;3.08;52.76
65329;BME280;51941;52.210;5.158;2023-02-26T09:38:32;102423.34;;;2.19;52.27
65329;BME280;51941;52.210;5.158;2023-02-26T09:41:02;102431.63;;;2.34;52.03
65329;BME280;51941;52.210;5.158;2023-02-26T09:43:47;102554.88;;;3.06;51.92
65329;BME280;51941;52.210;5.158;2023-02-26T09:46:26;102579.66;;;3.12;52.02
65329;BME280;51941;52.210;5.158;2023-02-26T09:49:02;102545.78;;;3.10;51.75
65329;BME280;51941;52.210;5.158;2023-02-26T09:51:33;102561.59;;;3.28;51.76
65329;BME280;51941;52.210;5.158;2023-02-26T09:54:07;102458.84;;;2.60;51.40
65329;BME280;51941;52.210;5.158;2023-02-26T09:56:38;102564.34;;;3.27;51.33
65329;BME280;51941;52.210;5.158;2023-02-26T09:59:04;102568.47;;;3.29;51.34
65329;BME280;51941;52.210;5.158;2023-02-26T10:01:38;102559.50;;;3.32;51.41
65329;BME280;51941;52.210;5.158;2023-02-26T10:04:17;102570.53;;;3.35;51.19
65329;BME280;51941;52.210;5.158;2023-02-26T10:07:05;102571.63;;;3.33;50.91
65329;BME280;51941;52.210;5.158;2023-02-26T10:09:46;102572.56;;;3.41;50.84
65329;BME280;51941;52.210;5.158;2023-02-26T10:12:17;102540.66;;;3.28;51.01
65329;BME280;51941;52.210;5.158;2023-02-26T10:14:50;102582.31;;;3.59;50.96
65329;BME280;51941;52.210;5.158;2023-02-26T10:17:22;102573.38;;;3.61;50.73
65329;BME280;51941;52.210;5.158;2023-02-26T10:19:54;102442.16;;;2.71;50.40
65329;BME280;51941;52.210;5.158;2023-02-26T10:22:27;102586.13;;;3.83;50.82
65329;BME280;51941;52.210;5.158;2023-02-26T10:25:00;102556.53;;;3.73;50.66
65329;BME280;51941;52.210;5.158;2023-02-26T10:27:37;102589.94;;;3.89;50.91
65329;BME280;51941;52.210;5.158;2023-02-26T10:30:12;102600.41;;;3.99;51.13
65329;BME280;51941;52.210;5.158;2023-02-26T10:32:51;102605.28;;;4.11;51.07
65329;BME280;51941;52.210;5.158;2023-02-26T10:35:21;102591.63;;;4.17;51.11
65329;BME280;51941;52.210;5.158;2023-02-26T10:37:54;102608.31;;;4.16;50.88
65329;BME280;51941;52.210;5.158;2023-02-26T10:40:27;102568.53;;;3.93;50.13
65329;BME280;51941;52.210;5.158;2023-02-26T10:42:58;102413.22;;;3.01;50.33
65329;BME280;51941;52.210;5.158;2023-02-26T10:45:37;102604.13;;;4.23;50.41
65329;BME280;51941;52.210;5.158;2023-02-26T10:48:17;102633.91;;;4.32;50.52
65329;BME280;51941;52.210;5.158;2023-02-26T10:50:51;102622.03;;;4.28;50.00
65329;BME280;51941;52.210;5.158;2023-02-26T10:53:19;102607.16;;;4.01;49.81
65329;BME280;51941;52.210;5.158;2023-02-26T10:55:49;102511.53;;;3.41;49.90
65329;BME280;51941;52.210;5.158;2023-02-26T10:58:20;102632.28;;;4.21;50.19
65329;BME280;51941;52.210;5.158;2023-02-26T11:00:50;102669.00;;;4.12;50.13
65329;BME280;51941;52.210;5.158;2023-02-26T11:03:21;102627.13;;;4.02;50.09
65329;BME280;51941;52.210;5.158;2023-02-26T11:05:50;102520.06;;;3.52;50.46
65329;BME280;51941;52.210;5.158;2023-02-26T11:08:19;102660.56;;;4.27;50.57
65329;BME280;51941;52.210;5.158;2023-02-26T11:10:51;102524.44;;;3.62;50.64
65329;BME280;51941;52.210;5.158;2023-02-26T11:13:20;102520.38;;;3.77;50.50
65329;BME280;51941;52.210;5.158;2023-02-26T11:15:49;102506.31;;;3.78;50.80
65329;BME280;51941;52.210;5.158;2023-02-26T11:18:20;102627.88;;;4.49;50.64
65329;BME280;51941;52.210;5.158;2023-02-26T11:20:52;102627.44;;;4.54;50.39
65329;BME280;51941;52.210;5.158;2023-02-26T11:23:21;102636.50;;;4.59;50.65
65329;BME280;51941;52.210;5.158;2023-02-26T11:25:52;102636.50;;;4.59;50.63
65329;BME280;51941;52.210;5.158;2023-02-26T11:28:22;102547.84;;;4.00;50.72
65329;BME280;51941;52.210;5.158;2023-02-26T11:30:51;102528.53;;;4.01;50.19
65329;BME280;51941;52.210;5.158;2023-02-26T11:33:27;102637.28;;;4.70;50.19
65329;BME280;51941;52.210;5.158;2023-02-26T11:35:57;102406.38;;;3.28;49.76
65329;BME280;51941;52.210;5.158;2023-02-26T11:38:26;102635.78;;;4.67;50.13
65329;BME280;51941;52.210;5.158;2023-02-26T11:40:55;102610.13;;;4.43;50.30
65329;BME280;51941;52.210;5.158;2023-02-26T11:43:24;102641.22;;;4.56;50.75
65329;BME280;51941;52.210;5.158;2023-02-26T11:45:56;102626.41;;;4.64;50.51
65329;BME280;51941;52.210;5.158;2023-02-26T11:48:28;102635.19;;;4.73;50.56
65329;BME280;51941;52.210;5.158;2023-02-26T11:51:00;102636.25;;;4.80;50.16
65329;BME280;51941;52.210;5.158;2023-02-26T11:53:31;102633.38;;;4.74;49.68
65329;BME280;51941;52.210;5.158;2023-02-26T11:56:02;102518.09;;;4.19;49.96
65329;BME280;51941;52.210;5.158;2023-02-26T11:58:34;102619.56;;;4.99;49.69
65329;BME280;51941;52.210;5.158;2023-02-26T12:01:03;102630.22;;;5.15;48.78
65329;BME280;51941;52.210;5.158;2023-02-26T12:03:35;102628.56;;;5.32;48.80
65329;BME280;51941;52.210;5.158;2023-02-26T12:06:04;102625.00;;;5.41;48.29
65329;BME280;51941;52.210;5.158;2023-02-26T12:08:32;102621.47;;;5.50;47.86
65329;BME280;51941;52.210;5.158;2023-02-26T12:14:15;102638.59;;;5.62;47.42
65329;BME280;51941;52.210;5.158;2023-02-26T12:16:55;102644.63;;;5.55;47.34
65329;BME280;51941;52.210;5.158;2023-02-26T12:19:38;102622.16;;;5.60;48.08
65329;BME280;51941;52.210;5.158;2023-02-26T12:22:26;102639.00;;;5.67;47.20
65329;BME280;51941;52.210;5.158;2023-02-26T12:25:20;102658.22;;;5.68;47.05
65329;BME280;51941;52.210;5.158;2023-02-26T12:28:03;102635.38;;;5.68;46.89
65329;BME280;51941;52.210;5.158;2023-02-26T12:30:48;102634.91;;;5.73;46.85
65329;BME280;51941;52.210;5.158;2023-02-26T12:33:28;102608.50;;;5.74;47.22
65329;BME280;51941;52.210;5.158;2023-02-26T12:36:13;102644.66;;;6.14;47.27
65329;BME280;51941;52.210;5.158;2023-02-26T12:38:48;102624.63;;;6.22;46.17
65329;BME280;51941;52.210;5.158;2023-02-26T12:41:43;102624.16;;;6.18;45.84
65329;BME280;51941;52.210;5.158;2023-02-26T12:44:23;102633.56;;;5.95;45.30
65329;BME280;51941;52.210;5.158;2023-02-26T12:47:16;102520.16;;;4.96;45.53
65329;BME280;51941;52.210;5.158;2023-02-26T12:49:53;102639.84;;;5.50;46.00
65329;BME280;51941;52.210;5.158;2023-02-26T12:53:04;102646.91;;;5.50;46.53
65329;BME280;51941;52.210;5.158;2023-02-26T12:55:46;102618.03;;;5.50;47.13
65329;BME280;51941;52.210;5.158;2023-02-26T12:58:43;102590.97;;;5.31;47.14
65329;BME280;51941;52.210;5.158;2023-02-26T13:01:30;102627.69;;;5.49;46.98
65329;BME280;51941;52.210;5.158;2023-02-26T13:04:39;102626.69;;;5.68;46.66
65329;BME280;51941;52.210;5.158;2023-02-26T13:07:19;102605.66;;;5.68;46.09
65329;BME280;51941;52.210;5.158;2023-02-26T13:09:57;102613.78;;;5.83;46.50
65329;BME280;51941;52.210;5.158;2023-02-26T13:12:34;102614.66;;;5.91;46.52
65329;BME280;51941;52.210;5.158;2023-02-26T13:15:31;102618.66;;;6.03;46.88
65329;BME280;51941;52.210;5.158;2023-02-26T13:18:05;102617.22;;;6.09;46.64
65329;BME280;51941;52.210;5.158;2023-02-26T13:20:37;102582.47;;;5.97;46.08
65329;BME280;51941;52.210;5.158;2023-02-26T13:23:11;102634.75;;;6.00;45.30
65329;BME280;51941;52.210;5.158;2023-02-26T13:25:44;102617.28;;;5.91;45.03
65329;BME280;51941;52.210;5.158;2023-02-26T13:28:21;102631.22;;;5.84;45.50